Time,TemperatureF,DewpointF,PressureIn,WindDirection,WindDirectionDegrees,WindSpeedMPH,WindSpeedGustMPH,Humidity,HourlyPrecipIn,Conditions,Clouds,dailyrainin,SoftwareType,DateUTC
2013-03-18 00:00:00,59.5,49.7,29.94,SW,218,0.0,0.0,70,0.00,,---,0.00,VWS V14.01,2013-03-18 02:00:00,
2013-03-18 00:30:00,58.5,49.9,29.95,SW,218,0.0,0.0,73,0.00,,---,0.00,VWS V14.01,2013-03-18 02:30:00,
2013-03-18 01:00:00,58.2,50.0,29.96,SW,225,0.0,1.0,74,0.00,,---,0.00,VWS V14.01,2013-03-18 03:00:00,
2013-03-18 01:30:00,57.5,50.0,29.96,SW,225,0.0,0.0,76,0.00,,---,0.00,VWS V14.01,2013-03-18 03:30:00,
2013-03-18 02:00:00,56.7,49.9,29.96,SW,225,0.0,0.0,78,0.00,,---,0.00,VWS V14.01,2013-03-18 04:00:00,
2013-03-18 02:30:00,55.9,49.8,29.96,SW,225,0.0,0.0,80,0.00,,---,0.00,VWS V14.01,2013-03-18 04:30:00,
2013-03-18 03:00:00,54.9,49.5,29.96,SW,225,0.0,0.0,82,0.00,,---,0.00,VWS V14.01,2013-03-18 05:00:00,
2013-03-18 03:30:00,54.5,50.1,29.96,SW,225,0.0,0.0,85,0.00,,---,0.00,VWS V14.01,2013-03-18 05:30:00,
2013-03-18 04:00:00,55.4,51.3,29.96,SW,225,0.0,1.0,86,0.00,,---,0.00,VWS V14.01,2013-03-18 06:00:00,
2013-03-18 04:30:00,55.4,52.2,29.97,SW,225,0.0,1.0,89,0.00,,---,0.00,VWS V14.01,2013-03-18 06:30:00,
2013-03-18 05:00:00,55.4,53.1,29.97,SW,225,0.0,1.0,92,0.00,,---,0.00,VWS V14.01,2013-03-18 07:00:00,
2013-03-18 05:30:00,55.5,52.3,29.97,SW,225,0.0,2.0,89,0.00,,---,0.00,VWS V14.01,2013-03-18 07:30:00,
2013-03-18 06:00:00,55.6,53.6,29.97,SW,225,0.0,2.0,93,0.00,,---,0.00,VWS V14.01,2013-03-18 08:00:00,
2013-03-18 06:30:00,55.8,53.8,29.96,SW,225,0.0,0.0,93,0.00,,---,0.00,VWS V14.01,2013-03-18 08:30:00,
2013-03-18 07:00:00,56.0,54.3,29.96,SW,225,0.0,0.0,94,0.00,,---,0.00,VWS V14.01,2013-03-18 09:00:00,
2013-03-18 07:30:00,56.6,54.9,29.97,SSW,202,0.0,3.0,94,0.00,,---,0.00,VWS V14.01,2013-03-18 09:30:00,
2013-03-18 08:00:00,54.1,49.4,29.98,ENE,68,1.0,7.0,84,0.00,,---,0.00,VWS V14.01,2013-03-18 10:00:00,
2013-03-18 08:30:00,51.2,45.6,29.99,East,90,2.0,6.0,81,0.00,,---,0.00,VWS V14.01,2013-03-18 10:30:00,
2013-03-18 09:00:00,50.5,45.2,30.00,East,90,2.0,7.0,82,0.00,,---,0.00,VWS V14.01,2013-03-18 11:00:00,
2013-03-18 10:00:00,49.5,44.2,30.02,East,82,1.0,5.0,82,0.00,,---,0.00,VWS V14.01,2013-03-18 12:00:00,
2013-03-18 10:30:00,49.2,44.3,30.03,East,98,2.0,6.0,83,0.00,,---,0.00,VWS V14.01,2013-03-18 12:30:00,
2013-03-18 11:00:00,48.5,43.9,30.02,East,84,6.0,6.0,84,0.00,,---,0.00,VWS V14.01,2013-03-18 13:00:00,
2013-03-18 11:30:00,47.9,43.9,30.02,East,87,0.0,7.0,86,0.00,,---,0.00,VWS V14.01,2013-03-18 13:30:00,
2013-03-18 12:00:00,47.4,44.6,30.03,East,80,1.0,6.0,90,0.00,,---,0.00,VWS V14.01,2013-03-18 14:00:00,
2013-03-18 12:30:00,46.8,44.9,30.01,East,81,2.0,6.0,93,0.00,,---,0.00,VWS V14.01,2013-03-18 14:30:00,
2013-03-18 13:00:00,46.7,45.3,30.01,ENE,67,2.0,7.0,95,0.00,,---,0.00,VWS V14.01,2013-03-18 15:00:00,
2013-03-18 13:30:00,47.0,45.4,30.00,ENE,73,1.0,9.0,94,0.00,,---,0.00,VWS V14.01,2013-03-18 15:30:00,
2013-03-18 14:00:00,47.2,45.0,30.01,SE,145,0.0,8.0,92,0.00,,---,0.00,VWS V14.01,2013-03-18 16:00:00,
2013-03-18 14:30:00,47.4,45.5,29.99,East,85,3.0,7.0,93,0.00,,---,0.00,VWS V14.01,2013-03-18 16:30:00,
2013-03-18 15:00:00,47.8,45.6,29.98,ESE,123,3.0,8.0,92,0.00,,---,0.00,VWS V14.01,2013-03-18 17:00:00,
2013-03-18 15:30:00,47.6,45.4,29.96,ESE,113,2.0,8.0,92,0.00,,---,0.00,VWS V14.01,2013-03-18 17:30:00,
2013-03-18 16:00:00,47.7,45.5,29.95,SE,128,2.0,8.0,92,0.00,,---,0.00,VWS V14.01,2013-03-18 18:00:00,
2013-03-18 16:30:00,47.2,45.3,29.93,East,86,1.0,7.0,93,0.00,,---,0.00,VWS V14.01,2013-03-18 18:30:00,
2013-03-18 17:00:00,46.8,44.9,29.92,NE,49,2.0,6.0,93,0.00,,---,0.00,VWS V14.01,2013-03-18 19:00:00,
2013-03-18 17:30:00,46.1,44.5,29.90,East,88,2.0,6.0,94,0.00,,---,0.00,VWS V14.01,2013-03-18 19:30:00,
2013-03-18 18:00:00,46.1,44.8,29.90,ENE,74,1.0,8.0,95,0.00,,---,0.00,VWS V14.01,2013-03-18 20:00:00,
2013-03-18 18:30:00,45.9,44.5,29.90,NE,49,1.0,7.0,95,0.00,,---,0.00,VWS V14.01,2013-03-18 20:30:00,
2013-03-18 19:00:00,45.1,44.0,29.90,ENE,69,1.0,5.0,96,0.00,,---,0.00,VWS V14.01,2013-03-18 21:00:00,
2013-03-18 19:30:00,44.9,43.8,29.89,ENE,76,1.0,6.0,96,0.00,,---,0.00,VWS V14.01,2013-03-18 21:30:00,
2013-03-18 20:00:00,44.6,43.5,29.87,East,86,3.0,5.0,96,0.00,,---,0.00,VWS V14.01,2013-03-18 22:00:00,
2013-03-18 20:30:00,44.2,43.1,29.86,North,360,0.0,7.0,96,0.01,,---,0.01,VWS V14.01,2013-03-18 22:30:00,
2013-03-18 21:00:00,44.2,43.1,30.03,NW,321,4.0,15.0,96,0.14,,---,0.14,VWS V14.01,2013-03-18 23:00:00,
2013-03-18 21:30:00,44.0,43.2,29.96,ENE,62,0.0,5.0,97,0.27,,---,0.27,VWS V14.01,2013-03-18 23:30:00,
2013-03-18 22:00:00,43.7,42.9,29.85,East,89,2.0,7.0,97,0.28,,---,0.29,VWS V14.01,2013-03-19 00:00:00,
2013-03-18 22:30:00,43.7,42.9,29.85,ESE,122,0.0,7.0,97,0.15,,---,0.29,VWS V14.01,2013-03-19 00:30:00,
2013-03-18 23:00:00,43.8,43.0,29.88,ESE,111,0.0,3.0,97,0.02,,---,0.29,VWS V14.01,2013-03-19 01:00:00,
2013-03-18 23:30:00,43.6,42.8,29.88,ESE,111,0.0,0.0,97,0.00,,---,0.29,VWS V14.01,2013-03-19 01:30:00,